sensor_id;sensor_type;location;lat;lon;timestamp;P1;durP1;ratioP1;P2;durP2;ratioP2
16705;SDS011;8469;60.136;15.180;2023-08-06T00:02:14;5.90;;;2.60;;
16705;SDS011;8469;60.136;15.180;2023-08-06T00:04:41;7.70;;;2.65;;
16705;SDS011;8469;60.136;15.180;2023-08-06T00:07:08;7.90;;;2.60;;
16705;SDS011;8469;60.136;15.180;2023-08-06T00:09:36;9.45;;;2.50;;
16705;SDS011;8469;60.136;15.180;2023-08-06T00:12:03;9.20;;;2.72;;
16705;SDS011;8469;60.136;15.180;2023-08-06T00:14:31;5.72;;;2.40;;
16705;SDS011;8469;60.136;15.180;2023-08-06T00:16:58;8.70;;;2.85;;
16705;SDS011;8469;60.136;15.180;2023-08-06T00:19:25;12.93;;;2.47;;
16705;SDS011;8469;60.136;15.180;2023-08-06T00:21:52;8.03;;;2.63;;
16705;SDS011;8469;60.136;15.180;2023-08-06T00:24:20;6.95;;;2.70;;
16705;SDS011;8469;60.136;15.180;2023-08-06T00:26:47;8.63;;;2.65;;
16705;SDS011;8469;60.136;15.180;2023-08-06T00:29:14;6.65;;;2.33;;
16705;SDS011;8469;60.136;15.180;2023-08-06T00:31:42;8.30;;;2.42;;
16705;SDS011;8469;60.136;15.180;2023-08-06T00:34:09;6.27;;;2.60;;
16705;SDS011;8469;60.136;15.180;2023-08-06T00:36:36;7.37;;;2.45;;
16705;SDS011;8469;60.136;15.180;2023-08-06T00:39:04;8.37;;;2.57;;
16705;SDS011;8469;60.136;15.180;2023-08-06T00:41:34;7.22;;;2.62;;
16705;SDS011;8469;60.136;15.180;2023-08-06T00:44:01;9.70;;;2.70;;
16705;SDS011;8469;60.136;15.180;2023-08-06T00:46:28;8.95;;;2.58;;
16705;SDS011;8469;60.136;15.180;2023-08-06T00:48:56;7.17;;;2.40;;
16705;SDS011;8469;60.136;15.180;2023-08-06T00:51:24;6.30;;;2.47;;
16705;SDS011;8469;60.136;15.180;2023-08-06T00:53:51;13.62;;;2.80;;
16705;SDS011;8469;60.136;15.180;2023-08-06T00:56:20;13.08;;;2.72;;
16705;SDS011;8469;60.136;15.180;2023-08-06T00:58:47;13.05;;;2.80;;
16705;SDS011;8469;60.136;15.180;2023-08-06T01:01:15;10.00;;;2.70;;
16705;SDS011;8469;60.136;15.180;2023-08-06T01:03:42;7.00;;;2.83;;
16705;SDS011;8469;60.136;15.180;2023-08-06T01:06:09;12.95;;;3.02;;
16705;SDS011;8469;60.136;15.180;2023-08-06T01:08:53;7.03;;;2.52;;
16705;SDS011;8469;60.136;15.180;2023-08-06T01:11:30;11.15;;;2.70;;
16705;SDS011;8469;60.136;15.180;2023-08-06T01:13:58;7.12;;;2.47;;
16705;SDS011;8469;60.136;15.180;2023-08-06T01:16:28;11.35;;;2.60;;
16705;SDS011;8469;60.136;15.180;2023-08-06T01:18:57;6.80;;;2.60;;
16705;SDS011;8469;60.136;15.180;2023-08-06T01:21:25;5.80;;;2.40;;
16705;SDS011;8469;60.136;15.180;2023-08-06T01:23:53;3.37;;;2.42;;
16705;SDS011;8469;60.136;15.180;2023-08-06T01:26:25;9.20;;;2.50;;
16705;SDS011;8469;60.136;15.180;2023-08-06T01:31:31;6.10;;;2.43;;
16705;SDS011;8469;60.136;15.180;2023-08-06T01:33:55;8.10;;;2.72;;
16705;SDS011;8469;60.136;15.180;2023-08-06T01:36:23;10.60;;;2.60;;
16705;SDS011;8469;60.136;15.180;2023-08-06T01:38:51;6.75;;;2.50;;
16705;SDS011;8469;60.136;15.180;2023-08-06T01:41:18;9.58;;;3.00;;
16705;SDS011;8469;60.136;15.180;2023-08-06T01:43:47;5.05;;;2.30;;
16705;SDS011;8469;60.136;15.180;2023-08-06T01:46:14;3.52;;;2.50;;
16705;SDS011;8469;60.136;15.180;2023-08-06T01:48:41;7.43;;;2.60;;
16705;SDS011;8469;60.136;15.180;2023-08-06T01:51:09;6.05;;;2.47;;
16705;SDS011;8469;60.136;15.180;2023-08-06T01:53:36;10.87;;;2.77;;
16705;SDS011;8469;60.136;15.180;2023-08-06T01:56:04;6.33;;;2.87;;
16705;SDS011;8469;60.136;15.180;2023-08-06T01:58:31;7.65;;;2.65;;
16705;SDS011;8469;60.136;15.180;2023-08-06T02:00:59;7.70;;;2.50;;
16705;SDS011;8469;60.136;15.180;2023-08-06T02:03:26;8.10;;;2.90;;
16705;SDS011;8469;60.136;15.180;2023-08-06T02:05:53;5.60;;;2.60;;
16705;SDS011;8469;60.136;15.180;2023-08-06T02:08:20;10.98;;;2.67;;
16705;SDS011;8469;60.136;15.180;2023-08-06T02:10:48;5.90;;;2.60;;
16705;SDS011;8469;60.136;15.180;2023-08-06T02:13:15;5.75;;;3.00;;
16705;SDS011;8469;60.136;15.180;2023-08-06T02:15:43;11.30;;;2.83;;
16705;SDS011;8469;60.136;15.180;2023-08-06T02:18:10;6.17;;;2.80;;
16705;SDS011;8469;60.136;15.180;2023-08-06T02:20:38;6.42;;;2.50;;
16705;SDS011;8469;60.136;15.180;2023-08-06T02:23:05;8.37;;;2.63;;
16705;SDS011;8469;60.136;15.180;2023-08-06T02:25:32;6.78;;;2.60;;
16705;SDS011;8469;60.136;15.180;2023-08-06T02:28:00;7.20;;;2.80;;
16705;SDS011;8469;60.136;15.180;2023-08-06T02:30:27;7.43;;;3.77;;
16705;SDS011;8469;60.136;15.180;2023-08-06T02:32:54;5.40;;;2.85;;
16705;SDS011;8469;60.136;15.180;2023-08-06T02:35:22;6.40;;;2.62;;
16705;SDS011;8469;60.136;15.180;2023-08-06T02:37:49;9.18;;;2.70;;
16705;SDS011;8469;60.136;15.180;2023-08-06T02:40:17;5.62;;;2.72;;
16705;SDS011;8469;60.136;15.180;2023-08-06T02:42:44;6.40;;;2.87;;
16705;SDS011;8469;60.136;15.180;2023-08-06T02:45:11;7.30;;;2.80;;
16705;SDS011;8469;60.136;15.180;2023-08-06T02:47:39;6.45;;;2.77;;
16705;SDS011;8469;60.136;15.180;2023-08-06T02:50:06;5.70;;;2.90;;
16705;SDS011;8469;60.136;15.180;2023-08-06T02:52:33;6.42;;;3.20;;
16705;SDS011;8469;60.136;15.180;2023-08-06T02:55:01;6.35;;;2.92;;
16705;SDS011;8469;60.136;15.180;2023-08-06T02:57:28;6.37;;;2.95;;
16705;SDS011;8469;60.136;15.180;2023-08-06T02:59:56;5.47;;;2.90;;
16705;SDS011;8469;60.136;15.180;2023-08-06T03:02:23;9.90;;;3.15;;
16705;SDS011;8469;60.136;15.180;2023-08-06T03:04:50;7.08;;;3.05;;
16705;SDS011;8469;60.136;15.180;2023-08-06T03:07:18;7.27;;;3.03;;
16705;SDS011;8469;60.136;15.180;2023-08-06T03:09:45;6.15;;;2.95;;
16705;SDS011;8469;60.136;15.180;2023-08-06T03:12:12;9.55;;;3.10;;
16705;SDS011;8469;60.136;15.180;2023-08-06T03:14:39;6.50;;;3.27;;
16705;SDS011;8469;60.136;15.180;2023-08-06T03:17:06;13.43;;;3.58;;
16705;SDS011;8469;60.136;15.180;2023-08-06T03:19:34;10.58;;;3.20;;
16705;SDS011;8469;60.136;15.180;2023-08-06T03:22:01;8.78;;;3.42;;
16705;SDS011;8469;60.136;15.180;2023-08-06T03:24:29;9.50;;;3.33;;
16705;SDS011;8469;60.136;15.180;2023-08-06T03:26:57;4.97;;;3.30;;
16705;SDS011;8469;60.136;15.180;2023-08-06T03:29:24;5.55;;;2.90;;
16705;SDS011;8469;60.136;15.180;2023-08-06T03:31:52;4.78;;;2.80;;
16705;SDS011;8469;60.136;15.180;2023-08-06T03:34:19;4.05;;;2.90;;
16705;SDS011;8469;60.136;15.180;2023-08-06T03:36:47;5.90;;;3.25;;
16705;SDS011;8469;60.136;15.180;2023-08-06T03:39:14;6.70;;;3.30;;
16705;SDS011;8469;60.136;15.180;2023-08-06T03:41:41;7.20;;;3.00;;
16705;SDS011;8469;60.136;15.180;2023-08-06T03:44:09;6.22;;;3.10;;
16705;SDS011;8469;60.136;15.180;2023-08-06T03:46:36;5.90;;;3.00;;
16705;SDS011;8469;60.136;15.180;2023-08-06T03:49:03;3.95;;;3.00;;
16705;SDS011;8469;60.136;15.180;2023-08-06T03:51:31;4.97;;;2.90;;
16705;SDS011;8469;60.136;15.180;2023-08-06T03:53:58;5.28;;;2.90;;
16705;SDS011;8469;60.136;15.180;2023-08-06T03:56:25;4.90;;;2.90;;
16705;SDS011;8469;60.136;15.180;2023-08-06T03:58:53;3.75;;;2.80;;
16705;SDS011;8469;60.136;15.180;2023-08-06T04:01:20;6.60;;;3.12;;
16705;SDS011;8469;60.136;15.180;2023-08-06T04:03:47;3.43;;;2.60;;
16705;SDS011;8469;60.136;15.180;2023-08-06T04:06:14;5.05;;;2.95;;
16705;SDS011;8469;60.136;15.180;2023-08-06T04:08:42;4.10;;;2.92;;
16705;SDS011;8469;60.136;15.180;2023-08-06T04:11:09;4.47;;;2.70;;
16705;SDS011;8469;60.136;15.180;2023-08-06T04:13:37;3.95;;;2.83;;
16705;SDS011;8469;60.136;15.180;2023-08-06T04:16:04;4.25;;;2.72;;
16705;SDS011;8469;60.136;15.180;2023-08-06T04:18:31;5.00;;;2.67;;
16705;SDS011;8469;60.136;15.180;2023-08-06T04:20:59;3.47;;;2.75;;
16705;SDS011;8469;60.136;15.180;2023-08-06T04:23:26;3.27;;;2.60;;
16705;SDS011;8469;60.136;15.180;2023-08-06T04:25:55;3.60;;;2.70;;
16705;SDS011;8469;60.136;15.180;2023-08-06T04:28:25;5.78;;;3.02;;
16705;SDS011;8469;60.136;15.180;2023-08-06T04:30:52;4.58;;;3.12;;
16705;SDS011;8469;60.136;15.180;2023-08-06T04:33:20;4.53;;;2.95;;
16705;SDS011;8469;60.136;15.180;2023-08-06T04:35:53;2.80;;;2.60;;
16705;SDS011;8469;60.136;15.180;2023-08-06T04:38:16;3.17;;;2.67;;
16705;SDS011;8469;60.136;15.180;2023-08-06T04:40:44;4.78;;;3.05;;
16705;SDS011;8469;60.136;15.180;2023-08-06T04:43:12;3.95;;;2.98;;
16705;SDS011;8469;60.136;15.180;2023-08-06T04:45:45;5.10;;;3.60;;
16705;SDS011;8469;60.136;15.180;2023-08-06T04:48:09;7.17;;;3.22;;
16705;SDS011;8469;60.136;15.180;2023-08-06T04:50:36;5.40;;;2.90;;
16705;SDS011;8469;60.136;15.180;2023-08-06T04:53:03;3.87;;;2.85;;
16705;SDS011;8469;60.136;15.180;2023-08-06T04:55:31;3.83;;;2.52;;
16705;SDS011;8469;60.136;15.180;2023-08-06T04:57:57;4.58;;;2.60;;
16705;SDS011;8469;60.136;15.180;2023-08-06T05:00:26;5.12;;;2.85;;
16705;SDS011;8469;60.136;15.180;2023-08-06T05:02:52;3.47;;;3.07;;
16705;SDS011;8469;60.136;15.180;2023-08-06T05:05:20;3.67;;;2.92;;
16705;SDS011;8469;60.136;15.180;2023-08-06T05:07:48;2.87;;;2.62;;
16705;SDS011;8469;60.136;15.180;2023-08-06T05:10:16;3.17;;;2.33;;
16705;SDS011;8469;60.136;15.180;2023-08-06T05:12:43;3.72;;;2.58;;
16705;SDS011;8469;60.136;15.180;2023-08-06T05:15:11;4.33;;;2.37;;
16705;SDS011;8469;60.136;15.180;2023-08-06T05:17:38;3.10;;;2.00;;
16705;SDS011;8469;60.136;15.180;2023-08-06T05:20:05;2.58;;;2.35;;
16705;SDS011;8469;60.136;15.180;2023-08-06T05:22:33;2.40;;;2.20;;
16705;SDS011;8469;60.136;15.180;2023-08-06T05:25:01;2.90;;;2.30;;
16705;SDS011;8469;60.136;15.180;2023-08-06T05:27:28;3.12;;;2.30;;
16705;SDS011;8469;60.136;15.180;2023-08-06T05:29:55;3.00;;;2.15;;
16705;SDS011;8469;60.136;15.180;2023-08-06T05:32:23;2.98;;;2.30;;
16705;SDS011;8469;60.136;15.180;2023-08-06T05:34:50;2.45;;;2.12;;
16705;SDS011;8469;60.136;15.180;2023-08-06T05:37:17;3.65;;;2.20;;
16705;SDS011;8469;60.136;15.180;2023-08-06T05:39:45;2.10;;;2.00;;
16705;SDS011;8469;60.136;15.180;2023-08-06T05:42:12;3.80;;;2.00;;
16705;SDS011;8469;60.136;15.180;2023-08-06T05:44:39;2.75;;;2.10;;
16705;SDS011;8469;60.136;15.180;2023-08-06T05:47:06;2.05;;;1.92;;
16705;SDS011;8469;60.136;15.180;2023-08-06T05:49:34;1.80;;;1.70;;
16705;SDS011;8469;60.136;15.180;2023-08-06T05:52:02;2.00;;;1.87;;
16705;SDS011;8469;60.136;15.180;2023-08-06T05:54:31;3.22;;;1.70;;
16705;SDS011;8469;60.136;15.180;2023-08-06T05:56:58;1.72;;;1.62;;
16705;SDS011;8469;60.136;15.180;2023-08-06T05:59:25;3.73;;;1.90;;
16705;SDS011;8469;60.136;15.180;2023-08-06T06:01:52;1.90;;;1.80;;
16705;SDS011;8469;60.136;15.180;2023-08-06T06:04:20;2.90;;;1.70;;
16705;SDS011;8469;60.136;15.180;2023-08-06T06:06:48;2.67;;;1.83;;
16705;SDS011;8469;60.136;15.180;2023-08-06T06:09:15;3.60;;;1.72;;
16705;SDS011;8469;60.136;15.180;2023-08-06T06:11:43;1.77;;;1.67;;
16705;SDS011;8469;60.136;15.180;2023-08-06T06:14:11;2.50;;;1.70;;
16705;SDS011;8469;60.136;15.180;2023-08-06T06:16:38;2.00;;;1.90;;
16705;SDS011;8469;60.136;15.180;2023-08-06T06:19:06;3.42;;;1.80;;
16705;SDS011;8469;60.136;15.180;2023-08-06T06:21:33;1.90;;;1.80;;
16705;SDS011;8469;60.136;15.180;2023-08-06T06:24:01;3.60;;;1.80;;
16705;SDS011;8469;60.136;15.180;2023-08-06T06:26:28;2.33;;;1.70;;
16705;SDS011;8469;60.136;15.180;2023-08-06T06:28:56;2.77;;;1.80;;
16705;SDS011;8469;60.136;15.180;2023-08-06T06:31:23;1.72;;;1.62;;
16705;SDS011;8469;60.136;15.180;2023-08-06T06:33:51;1.60;;;1.50;;
16705;SDS011;8469;60.136;15.180;2023-08-06T06:36:20;2.20;;;1.50;;
16705;SDS011;8469;60.136;15.180;2023-08-06T06:38:47;1.75;;;1.37;;
16705;SDS011;8469;60.136;15.180;2023-08-06T06:41:15;2.10;;;1.50;;
16705;SDS011;8469;60.136;15.180;2023-08-06T06:43:43;1.52;;;1.45;;
16705;SDS011;8469;60.136;15.180;2023-08-06T06:46:10;4.78;;;2.05;;
16705;SDS011;8469;60.136;15.180;2023-08-06T06:48:37;1.95;;;1.47;;
16705;SDS011;8469;60.136;15.180;2023-08-06T06:51:05;2.77;;;1.70;;
16705;SDS011;8469;60.136;15.180;2023-08-06T06:53:31;1.70;;;1.60;;
16705;SDS011;8469;60.136;15.180;2023-08-06T06:56:03;2.90;;;1.70;;
16705;SDS011;8469;60.136;15.180;2023-08-06T06:58:31;2.00;;;1.60;;
16705;SDS011;8469;60.136;15.180;2023-08-06T07:00:58;2.33;;;1.65;;
16705;SDS011;8469;60.136;15.180;2023-08-06T07:03:25;3.50;;;1.62;;
16705;SDS011;8469;60.136;15.180;2023-08-06T07:05:56;2.00;;;1.60;;
16705;SDS011;8469;60.136;15.180;2023-08-06T07:08:26;1.90;;;1.80;;
16705;SDS011;8469;60.136;15.180;2023-08-06T07:11:00;2.67;;;1.67;;
16705;SDS011;8469;60.136;15.180;2023-08-06T07:13:27;2.52;;;1.90;;
16705;SDS011;8469;60.136;15.180;2023-08-06T07:15:56;1.70;;;1.60;;
16705;SDS011;8469;60.136;15.180;2023-08-06T07:18:24;2.02;;;1.77;;
16705;SDS011;8469;60.136;15.180;2023-08-06T07:20:52;3.42;;;1.87;;
16705;SDS011;8469;60.136;15.180;2023-08-06T07:23:23;3.50;;;1.70;;
16705;SDS011;8469;60.136;15.180;2023-08-06T07:25:50;3.08;;;1.87;;
16705;SDS011;8469;60.136;15.180;2023-08-06T07:28:18;3.30;;;1.90;;
16705;SDS011;8469;60.136;15.180;2023-08-06T07:30:46;2.25;;;1.90;;
16705;SDS011;8469;60.136;15.180;2023-08-06T07:33:13;4.95;;;1.90;;
16705;SDS011;8469;60.136;15.180;2023-08-06T07:35:41;2.72;;;1.90;;
16705;SDS011;8469;60.136;15.180;2023-08-06T07:38:09;3.02;;;1.90;;
16705;SDS011;8469;60.136;15.180;2023-08-06T07:40:36;3.30;;;2.08;;
16705;SDS011;8469;60.136;15.180;2023-08-06T07:43:04;4.40;;;2.10;;
16705;SDS011;8469;60.136;15.180;2023-08-06T07:45:35;2.62;;;2.00;;
16705;SDS011;8469;60.136;15.180;2023-08-06T07:48:02;5.35;;;2.30;;
16705;SDS011;8469;60.136;15.180;2023-08-06T07:50:32;3.30;;;2.10;;
16705;SDS011;8469;60.136;15.180;2023-08-06T07:53:00;2.58;;;2.37;;
16705;SDS011;8469;60.136;15.180;2023-08-06T07:55:27;3.12;;;2.27;;
16705;SDS011;8469;60.136;15.180;2023-08-06T07:57:55;4.27;;;2.30;;
16705;SDS011;8469;60.136;15.180;2023-08-06T08:00:22;2.85;;;2.47;;
16705;SDS011;8469;60.136;15.180;2023-08-06T08:02:50;2.42;;;2.22;;
16705;SDS011;8469;60.136;15.180;2023-08-06T08:05:17;3.45;;;2.20;;
16705;SDS011;8469;60.136;15.180;2023-08-06T08:07:44;4.70;;;2.67;;
16705;SDS011;8469;60.136;15.180;2023-08-06T08:10:12;2.90;;;2.35;;
16705;SDS011;8469;60.136;15.180;2023-08-06T08:12:39;2.47;;;2.27;;
16705;SDS011;8469;60.136;15.180;2023-08-06T08:15:06;2.40;;;2.20;;
16705;SDS011;8469;60.136;15.180;2023-08-06T08:17:34;4.17;;;2.50;;
16705;SDS011;8469;60.136;15.180;2023-08-06T08:20:01;2.40;;;2.10;;
16705;SDS011;8469;60.136;15.180;2023-08-06T08:22:29;2.58;;;2.37;;
16705;SDS011;8469;60.136;15.180;2023-08-06T08:24:56;4.72;;;2.50;;
16705;SDS011;8469;60.136;15.180;2023-08-06T08:27:24;3.37;;;2.52;;
16705;SDS011;8469;60.136;15.180;2023-08-06T08:29:52;3.98;;;2.40;;
16705;SDS011;8469;60.136;15.180;2023-08-06T08:32:20;2.85;;;2.25;;
16705;SDS011;8469;60.136;15.180;2023-08-06T08:34:46;3.77;;;2.63;;
16705;SDS011;8469;60.136;15.180;2023-08-06T08:37:15;3.58;;;2.35;;
16705;SDS011;8469;60.136;15.180;2023-08-06T08:39:41;4.50;;;2.80;;
16705;SDS011;8469;60.136;15.180;2023-08-06T08:42:10;5.00;;;2.50;;
16705;SDS011;8469;60.136;15.180;2023-08-06T08:44:37;4.03;;;2.47;;
16705;SDS011;8469;60.136;15.180;2023-08-06T08:47:07;3.50;;;2.30;;
16705;SDS011;8469;60.136;15.180;2023-08-06T08:49:36;3.25;;;2.50;;
16705;SDS011;8469;60.136;15.180;2023-08-06T08:52:04;3.77;;;2.50;;
16705;SDS011;8469;60.136;15.180;2023-08-06T08:54:32;4.12;;;2.50;;
16705;SDS011;8469;60.136;15.180;2023-08-06T08:57:01;2.60;;;2.40;;
16705;SDS011;8469;60.136;15.180;2023-08-06T08:59:28;2.87;;;2.20;;
16705;SDS011;8469;60.136;15.180;2023-08-06T09:01:56;2.87;;;2.20;;
16705;SDS011;8469;60.136;15.180;2023-08-06T09:04:23;2.62;;;2.20;;
16705;SDS011;8469;60.136;15.180;2023-08-06T09:06:50;3.75;;;2.25;;
16705;SDS011;8469;60.136;15.180;2023-08-06T09:09:22;4.05;;;2.45;;
16705;SDS011;8469;60.136;15.180;2023-08-06T09:11:49;2.12;;;1.90;;
16705;SDS011;8469;60.136;15.180;2023-08-06T09:14:16;3.75;;;2.10;;
16705;SDS011;8469;60.136;15.180;2023-08-06T09:16:44;3.27;;;2.10;;
16705;SDS011;8469;60.136;15.180;2023-08-06T09:19:11;2.60;;;2.10;;
16705;SDS011;8469;60.136;15.180;2023-08-06T09:21:39;2.90;;;1.92;;
16705;SDS011;8469;60.136;15.180;2023-08-06T09:24:11;4.03;;;2.42;;
16705;SDS011;8469;60.136;15.180;2023-08-06T09:26:39;2.83;;;2.10;;
16705;SDS011;8469;60.136;15.180;2023-08-06T09:29:07;5.35;;;2.40;;
16705;SDS011;8469;60.136;15.180;2023-08-06T09:31:41;4.30;;;2.30;;
16705;SDS011;8469;60.136;15.180;2023-08-06T09:34:21;6.53;;;2.73;;
16705;SDS011;8469;60.136;15.180;2023-08-06T09:36:50;2.33;;;2.12;;
16705;SDS011;8469;60.136;15.180;2023-08-06T09:39:18;6.75;;;2.10;;
16705;SDS011;8469;60.136;15.180;2023-08-06T09:41:47;2.22;;;1.98;;
16705;SDS011;8469;60.136;15.180;2023-08-06T09:44:15;3.20;;;1.80;;
16705;SDS011;8469;60.136;15.180;2023-08-06T09:46:51;1.80;;;1.70;;
16705;SDS011;8469;60.136;15.180;2023-08-06T09:49:19;2.17;;;2.08;;
16705;SDS011;8469;60.136;15.180;2023-08-06T09:51:47;2.00;;;1.80;;
16705;SDS011;8469;60.136;15.180;2023-08-06T09:54:16;2.20;;;2.00;;
16705;SDS011;8469;60.136;15.180;2023-08-06T09:56:45;2.62;;;1.87;;
16705;SDS011;8469;60.136;15.180;2023-08-06T09:59:12;2.40;;;2.10;;
16705;SDS011;8469;60.136;15.180;2023-08-06T10:01:40;3.10;;;2.08;;
16705;SDS011;8469;60.136;15.180;2023-08-06T10:04:07;3.10;;;1.90;;
16705;SDS011;8469;60.136;15.180;2023-08-06T10:06:35;5.05;;;2.10;;
16705;SDS011;8469;60.136;15.180;2023-08-06T10:09:03;2.20;;;2.00;;
16705;SDS011;8469;60.136;15.180;2023-08-06T10:11:30;3.42;;;2.08;;
16705;SDS011;8469;60.136;15.180;2023-08-06T10:14:02;3.55;;;2.10;;
16705;SDS011;8469;60.136;15.180;2023-08-06T10:16:30;5.70;;;2.37;;
16705;SDS011;8469;60.136;15.180;2023-08-06T10:18:58;3.30;;;1.90;;
16705;SDS011;8469;60.136;15.180;2023-08-06T10:21:25;3.50;;;2.05;;
16705;SDS011;8469;60.136;15.180;2023-08-06T10:23:54;5.62;;;2.00;;
16705;SDS011;8469;60.136;15.180;2023-08-06T10:26:28;2.85;;;2.08;;
16705;SDS011;8469;60.136;15.180;2023-08-06T10:28:56;6.55;;;2.45;;
16705;SDS011;8469;60.136;15.180;2023-08-06T10:34:07;2.10;;;1.90;;
16705;SDS011;8469;60.136;15.180;2023-08-06T10:36:35;3.62;;;2.10;;
16705;SDS011;8469;60.136;15.180;2023-08-06T10:39:02;4.53;;;2.00;;
16705;SDS011;8469;60.136;15.180;2023-08-06T10:41:30;2.93;;;2.13;;
16705;SDS011;8469;60.136;15.180;2023-08-06T10:44:07;2.40;;;2.20;;
16705;SDS011;8469;60.136;15.180;2023-08-06T10:46:37;2.47;;;2.27;;
16705;SDS011;8469;60.136;15.180;2023-08-06T10:49:10;2.87;;;1.90;;
16705;SDS011;8469;60.136;15.180;2023-08-06T10:51:34;3.40;;;2.20;;
16705;SDS011;8469;60.136;15.180;2023-08-06T10:54:01;4.58;;;2.05;;
16705;SDS011;8469;60.136;15.180;2023-08-06T10:56:29;4.17;;;2.17;;
16705;SDS011;8469;60.136;15.180;2023-08-06T10:58:57;3.58;;;1.95;;
16705;SDS011;8469;60.136;15.180;2023-08-06T11:01:26;2.10;;;1.90;;
16705;SDS011;8469;60.136;15.180;2023-08-06T11:03:53;3.27;;;2.00;;
16705;SDS011;8469;60.136;15.180;2023-08-06T11:06:21;3.77;;;2.20;;
16705;SDS011;8469;60.136;15.180;2023-08-06T11:08:52;2.77;;;1.90;;
16705;SDS011;8469;60.136;15.180;2023-08-06T11:11:22;2.20;;;1.67;;
16705;SDS011;8469;60.136;15.180;2023-08-06T11:13:49;3.03;;;1.90;;
16705;SDS011;8469;60.136;15.180;2023-08-06T11:16:20;4.12;;;2.00;;
16705;SDS011;8469;60.136;15.180;2023-08-06T11:18:47;4.12;;;2.10;;
16705;SDS011;8469;60.136;15.180;2023-08-06T11:21:14;2.72;;;2.10;;
16705;SDS011;8469;60.136;15.180;2023-08-06T11:23:43;4.33;;;1.92;;
16705;SDS011;8469;60.136;15.180;2023-08-06T11:26:11;1.87;;;1.70;;
16705;SDS011;8469;60.136;15.180;2023-08-06T11:28:38;4.03;;;2.10;;
16705;SDS011;8469;60.136;15.180;2023-08-06T11:31:07;2.47;;;1.77;;
16705;SDS011;8469;60.136;15.180;2023-08-06T11:33:35;5.85;;;2.10;;
16705;SDS011;8469;60.136;15.180;2023-08-06T11:36:03;3.55;;;2.02;;
16705;SDS011;8469;60.136;15.180;2023-08-06T11:38:32;3.08;;;2.00;;
16705;SDS011;8469;60.136;15.180;2023-08-06T11:40:59;2.45;;;1.70;;
16705;SDS011;8469;60.136;15.180;2023-08-06T11:43:29;3.25;;;2.00;;
16705;SDS011;8469;60.136;15.180;2023-08-06T11:45:55;2.55;;;1.90;;
16705;SDS011;8469;60.136;15.180;2023-08-06T11:48:24;5.53;;;1.85;;
16705;SDS011;8469;60.136;15.180;2023-08-06T11:50:54;4.40;;;2.08;;
16705;SDS011;8469;60.136;15.180;2023-08-06T11:53:20;5.90;;;2.05;;
16705;SDS011;8469;60.136;15.180;2023-08-06T11:55:47;2.62;;;1.80;;
16705;SDS011;8469;60.136;15.180;2023-08-06T11:58:16;1.98;;;1.77;;
16705;SDS011;8469;60.136;15.180;2023-08-06T12:00:43;3.75;;;1.85;;
16705;SDS011;8469;60.136;15.180;2023-08-06T12:03:11;5.70;;;1.70;;
16705;SDS011;8469;60.136;15.180;2023-08-06T12:05:38;2.42;;;1.60;;
16705;SDS011;8469;60.136;15.180;2023-08-06T12:08:05;4.67;;;1.87;;
16705;SDS011;8469;60.136;15.180;2023-08-06T12:10:33;2.57;;;1.90;;
16705;SDS011;8469;60.136;15.180;2023-08-06T12:13:00;6.35;;;1.60;;
16705;SDS011;8469;60.136;15.180;2023-08-06T12:15:29;2.98;;;1.80;;
16705;SDS011;8469;60.136;15.180;2023-08-06T12:17:56;2.87;;;1.70;;
16705;SDS011;8469;60.136;15.180;2023-08-06T12:20:23;3.00;;;1.77;;
16705;SDS011;8469;60.136;15.180;2023-08-06T12:22:51;2.02;;;1.50;;
16705;SDS011;8469;60.136;15.180;2023-08-06T12:25:19;3.15;;;1.77;;
16705;SDS011;8469;60.136;15.180;2023-08-06T12:27:46;3.40;;;1.50;;
16705;SDS011;8469;60.136;15.180;2023-08-06T12:30:14;3.27;;;1.55;;
16705;SDS011;8469;60.136;15.180;2023-08-06T12:32:41;3.30;;;1.50;;
16705;SDS011;8469;60.136;15.180;2023-08-06T12:35:08;1.80;;;1.70;;
16705;SDS011;8469;60.136;15.180;2023-08-06T12:37:36;2.90;;;1.87;;
16705;SDS011;8469;60.136;15.180;2023-08-06T12:40:05;2.85;;;1.57;;
16705;SDS011;8469;60.136;15.180;2023-08-06T12:42:32;1.60;;;1.40;;
16705;SDS011;8469;60.136;15.180;2023-08-06T12:44:59;1.60;;;1.50;;
16705;SDS011;8469;60.136;15.180;2023-08-06T12:47:27;4.73;;;1.73;;
16705;SDS011;8469;60.136;15.180;2023-08-06T12:49:55;1.75;;;1.60;;
16705;SDS011;8469;60.136;15.180;2023-08-06T12:52:22;1.95;;;1.62;;
16705;SDS011;8469;60.136;15.180;2023-08-06T12:54:49;1.70;;;1.60;;
16705;SDS011;8469;60.136;15.180;2023-08-06T12:57:16;1.70;;;1.50;;
16705;SDS011;8469;60.136;15.180;2023-08-06T12:59:44;1.98;;;1.65;;
16705;SDS011;8469;60.136;15.180;2023-08-06T13:02:11;1.53;;;1.43;;
16705;SDS011;8469;60.136;15.180;2023-08-06T13:04:38;2.02;;;1.47;;
16705;SDS011;8469;60.136;15.180;2023-08-06T13:07:05;3.33;;;1.80;;
16705;SDS011;8469;60.136;15.180;2023-08-06T13:09:33;2.95;;;1.98;;
16705;SDS011;8469;60.136;15.180;2023-08-06T13:12:01;1.65;;;1.55;;
16705;SDS011;8469;60.136;15.180;2023-08-06T13:14:30;1.72;;;1.60;;
16705;SDS011;8469;60.136;15.180;2023-08-06T13:16:57;1.67;;;1.52;;
16705;SDS011;8469;60.136;15.180;2023-08-06T13:19:25;3.67;;;1.70;;
16705;SDS011;8469;60.136;15.180;2023-08-06T13:24:21;1.57;;;1.47;;
16705;SDS011;8469;60.136;15.180;2023-08-06T13:26:48;2.27;;;1.60;;
16705;SDS011;8469;60.136;15.180;2023-08-06T13:29:15;2.30;;;1.50;;
16705;SDS011;8469;60.136;15.180;2023-08-06T13:31:43;1.70;;;1.60;;
16705;SDS011;8469;60.136;15.180;2023-08-06T13:34:11;2.37;;;1.80;;
16705;SDS011;8469;60.136;15.180;2023-08-06T13:36:38;1.98;;;1.70;;
16705;SDS011;8469;60.136;15.180;2023-08-06T13:39:05;2.27;;;1.60;;
16705;SDS011;8469;60.136;15.180;2023-08-06T13:41:33;3.20;;;1.72;;
16705;SDS011;8469;60.136;15.180;2023-08-06T13:44:01;1.90;;;1.80;;
16705;SDS011;8469;60.136;15.180;2023-08-06T13:46:28;3.08;;;1.90;;
16705;SDS011;8469;60.136;15.180;2023-08-06T13:48:55;5.10;;;1.60;;
16705;SDS011;8469;60.136;15.180;2023-08-06T13:51:22;2.60;;;1.80;;
16705;SDS011;8469;60.136;15.180;2023-08-06T13:53:50;2.75;;;1.85;;
16705;SDS011;8469;60.136;15.180;2023-08-06T13:56:18;1.82;;;1.70;;
16705;SDS011;8469;60.136;15.180;2023-08-06T13:58:46;2.00;;;1.80;;
16705;SDS011;8469;60.136;15.180;2023-08-06T14:01:13;3.90;;;1.70;;
16705;SDS011;8469;60.136;15.180;2023-08-06T14:03:42;1.90;;;1.70;;
16705;SDS011;8469;60.136;15.180;2023-08-06T14:06:09;2.50;;;1.75;;
16705;SDS011;8469;60.136;15.180;2023-08-06T14:08:36;3.85;;;1.70;;
16705;SDS011;8469;60.136;15.180;2023-08-06T14:11:05;2.20;;;1.60;;
16705;SDS011;8469;60.136;15.180;2023-08-06T14:13:32;4.15;;;1.82;;
16705;SDS011;8469;60.136;15.180;2023-08-06T14:16:00;2.20;;;1.90;;
16705;SDS011;8469;60.136;15.180;2023-08-06T14:18:28;3.37;;;1.80;;
16705;SDS011;8469;60.136;15.180;2023-08-06T14:20:55;4.37;;;1.90;;
16705;SDS011;8469;60.136;15.180;2023-08-06T14:23:22;3.00;;;1.80;;
16705;SDS011;8469;60.136;15.180;2023-08-06T14:25:50;2.80;;;1.85;;
16705;SDS011;8469;60.136;15.180;2023-08-06T14:28:17;2.15;;;1.80;;
16705;SDS011;8469;60.136;15.180;2023-08-06T14:30:45;2.98;;;1.92;;
16705;SDS011;8469;60.136;15.180;2023-08-06T14:33:12;2.12;;;1.87;;
16705;SDS011;8469;60.136;15.180;2023-08-06T14:35:39;4.65;;;1.98;;
16705;SDS011;8469;60.136;15.180;2023-08-06T14:38:07;3.52;;;2.10;;
16705;SDS011;8469;60.136;15.180;2023-08-06T14:40:34;2.43;;;2.03;;
16705;SDS011;8469;60.136;15.180;2023-08-06T14:43:09;3.47;;;1.90;;
16705;SDS011;8469;60.136;15.180;2023-08-06T14:45:32;6.80;;;2.17;;
16705;SDS011;8469;60.136;15.180;2023-08-06T14:48:00;2.20;;;2.00;;
16705;SDS011;8469;60.136;15.180;2023-08-06T14:50:27;3.67;;;2.15;;
16705;SDS011;8469;60.136;15.180;2023-08-06T14:52:54;3.30;;;2.30;;
16705;SDS011;8469;60.136;15.180;2023-08-06T14:55:24;3.83;;;2.47;;
16705;SDS011;8469;60.136;15.180;2023-08-06T14:57:52;3.33;;;2.40;;
16705;SDS011;8469;60.136;15.180;2023-08-06T15:00:20;4.35;;;2.33;;